sensor_id;sensor_type;location;lat;lon;timestamp;temperature;humidity
8778;DHT22;4425;50.872;4.712;2024-01-11T00:02:10;-3.10;99.90
8778;DHT22;4425;50.872;4.712;2024-01-11T00:04:39;-3.10;99.90
8778;DHT22;4425;50.872;4.712;2024-01-11T00:07:06;-3.10;99.90
8778;DHT22;4425;50.872;4.712;2024-01-11T00:09:33;-3.10;99.90
8778;DHT22;4425;50.872;4.712;2024-01-11T00:12:00;-3.20;99.90
8778;DHT22;4425;50.872;4.712;2024-01-11T00:14:27;-3.20;99.90
8778;DHT22;4425;50.872;4.712;2024-01-11T00:16:57;-3.20;99.90
8778;DHT22;4425;50.872;4.712;2024-01-11T00:19:24;-3.20;99.90
8778;DHT22;4425;50.872;4.712;2024-01-11T00:21:52;-3.20;99.90
8778;DHT22;4425;50.872;4.712;2024-01-11T00:24:19;-3.20;99.90
8778;DHT22;4425;50.872;4.712;2024-01-11T00:26:46;-3.20;99.90
8778;DHT22;4425;50.872;4.712;2024-01-11T00:29:13;-3.20;99.90
8778;DHT22;4425;50.872;4.712;2024-01-11T00:31:40;-3.20;99.90
8778;DHT22;4425;50.872;4.712;2024-01-11T00:34:07;-3.20;99.90
8778;DHT22;4425;50.872;4.712;2024-01-11T00:36:34;-3.20;99.90
8778;DHT22;4425;50.872;4.712;2024-01-11T00:39:03;-3.20;99.90
8778;DHT22;4425;50.872;4.712;2024-01-11T00:41:32;-3.20;99.90
8778;DHT22;4425;50.872;4.712;2024-01-11T00:43:59;-3.20;99.90
8778;DHT22;4425;50.872;4.712;2024-01-11T00:46:26;-3.20;99.90
8778;DHT22;4425;50.872;4.712;2024-01-11T00:48:53;-3.20;99.90
8778;DHT22;4425;50.872;4.712;2024-01-11T00:51:20;-3.20;99.90
8778;DHT22;4425;50.872;4.712;2024-01-11T00:53:47;-3.30;99.90
8778;DHT22;4425;50.872;4.712;2024-01-11T00:56:19;-3.30;99.90
8778;DHT22;4425;50.872;4.712;2024-01-11T00:58:46;-3.30;99.90
8778;DHT22;4425;50.872;4.712;2024-01-11T01:01:13;-3.30;99.90
8778;DHT22;4425;50.872;4.712;2024-01-11T01:03:40;-3.30;99.90
8778;DHT22;4425;50.872;4.712;2024-01-11T01:06:07;-3.30;99.90
8778;DHT22;4425;50.872;4.712;2024-01-11T01:08:34;-3.30;99.90
8778;DHT22;4425;50.872;4.712;2024-01-11T01:11:01;-3.30;99.90
8778;DHT22;4425;50.872;4.712;2024-01-11T01:13:29;-3.30;99.90
8778;DHT22;4425;50.872;4.712;2024-01-11T01:16:03;-3.30;99.90
8778;DHT22;4425;50.872;4.712;2024-01-11T01:18:30;-3.30;99.90
8778;DHT22;4425;50.872;4.712;2024-01-11T01:20:57;-3.40;99.90
8778;DHT22;4425;50.872;4.712;2024-01-11T01:23:24;-3.40;99.90
8778;DHT22;4425;50.872;4.712;2024-01-11T01:25:51;-3.40;99.90
8778;DHT22;4425;50.872;4.712;2024-01-11T01:28:18;-3.30;99.90
8778;DHT22;4425;50.872;4.712;2024-01-11T01:30:46;-3.40;99.90
8778;DHT22;4425;50.872;4.712;2024-01-11T01:33:13;-3.40;99.90
8778;DHT22;4425;50.872;4.712;2024-01-11T01:35:40;-3.40;99.90
8778;DHT22;4425;50.872;4.712;2024-01-11T01:38:07;-3.40;99.90
8778;DHT22;4425;50.872;4.712;2024-01-11T01:40:34;-3.50;99.90
8778;DHT22;4425;50.872;4.712;2024-01-11T12:18:02;-0.50;99.90
8778;DHT22;4425;50.872;4.712;2024-01-11T12:20:29;-0.40;99.90
8778;DHT22;4425;50.872;4.712;2024-01-11T12:22:56;-0.40;99.90
8778;DHT22;4425;50.872;4.712;2024-01-11T12:25:24;-0.30;99.90
8778;DHT22;4425;50.872;4.712;2024-01-11T12:27:52;-0.30;99.90
8778;DHT22;4425;50.872;4.712;2024-01-11T12:30:19;-0.30;99.90
8778;DHT22;4425;50.872;4.712;2024-01-11T12:32:49;-0.20;99.90
8778;DHT22;4425;50.872;4.712;2024-01-11T12:35:18;-0.30;99.90
8778;DHT22;4425;50.872;4.712;2024-01-11T12:37:52;-0.20;99.90
8778;DHT22;4425;50.872;4.712;2024-01-11T12:40:20;-0.20;99.90
8778;DHT22;4425;50.872;4.712;2024-01-11T12:42:48;-0.10;99.90
8778;DHT22;4425;50.872;4.712;2024-01-11T12:45:16;0.00;99.90
8778;DHT22;4425;50.872;4.712;2024-01-11T12:47:43;0.00;99.90
8778;DHT22;4425;50.872;4.712;2024-01-11T12:50:11;0.00;99.90
8778;DHT22;4425;50.872;4.712;2024-01-11T12:52:40;0.00;99.90
8778;DHT22;4425;50.872;4.712;2024-01-11T12:55:08;0.10;99.90
8778;DHT22;4425;50.872;4.712;2024-01-11T12:57:44;0.10;99.90
8778;DHT22;4425;50.872;4.712;2024-01-11T13:00:12;0.20;99.90
8778;DHT22;4425;50.872;4.712;2024-01-11T13:02:39;0.20;99.90
8778;DHT22;4425;50.872;4.712;2024-01-11T13:05:08;0.20;99.90
8778;DHT22;4425;50.872;4.712;2024-01-11T13:07:36;0.20;99.90
8778;DHT22;4425;50.872;4.712;2024-01-11T13:10:05;0.30;99.90
8778;DHT22;4425;50.872;4.712;2024-01-11T13:12:32;0.30;99.90
8778;DHT22;4425;50.872;4.712;2024-01-11T13:15:00;0.30;99.90
8778;DHT22;4425;50.872;4.712;2024-01-11T13:17:27;0.40;99.90
8778;DHT22;4425;50.872;4.712;2024-01-11T13:19:55;0.40;99.90
8778;DHT22;4425;50.872;4.712;2024-01-11T13:22:25;0.50;99.90
8778;DHT22;4425;50.872;4.712;2024-01-11T13:24:52;0.40;99.90
8778;DHT22;4425;50.872;4.712;2024-01-11T13:27:20;0.50;99.90
8778;DHT22;4425;50.872;4.712;2024-01-11T13:29:48;0.60;99.90
8778;DHT22;4425;50.872;4.712;2024-01-11T13:32:15;0.50;99.90
8778;DHT22;4425;50.872;4.712;2024-01-11T13:34:42;0.60;99.90
8778;DHT22;4425;50.872;4.712;2024-01-11T13:37:09;0.60;99.90
8778;DHT22;4425;50.872;4.712;2024-01-11T13:39:36;0.60;99.90
8778;DHT22;4425;50.872;4.712;2024-01-11T13:42:03;0.60;99.90
8778;DHT22;4425;50.872;4.712;2024-01-11T13:44:36;0.70;99.90
8778;DHT22;4425;50.872;4.712;2024-01-11T13:47:03;0.60;99.90
8778;DHT22;4425;50.872;4.712;2024-01-11T13:49:30;0.70;99.90
8778;DHT22;4425;50.872;4.712;2024-01-11T13:51:57;0.70;99.90
8778;DHT22;4425;50.872;4.712;2024-01-11T13:54:24;0.70;99.90
8778;DHT22;4425;50.872;4.712;2024-01-11T13:56:51;0.70;99.90
8778;DHT22;4425;50.872;4.712;2024-01-11T13:59:18;0.70;99.90
8778;DHT22;4425;50.872;4.712;2024-01-11T14:01:46;0.70;99.90
8778;DHT22;4425;50.872;4.712;2024-01-11T14:04:13;0.80;99.90
8778;DHT22;4425;50.872;4.712;2024-01-11T14:06:41;0.80;99.90
8778;DHT22;4425;50.872;4.712;2024-01-11T14:09:08;0.80;99.90
8778;DHT22;4425;50.872;4.712;2024-01-11T14:11:35;0.80;99.90
8778;DHT22;4425;50.872;4.712;2024-01-11T14:14:02;0.80;99.90
8778;DHT22;4425;50.872;4.712;2024-01-11T14:16:29;0.90;99.90
8778;DHT22;4425;50.872;4.712;2024-01-11T14:18:57;0.90;99.90
8778;DHT22;4425;50.872;4.712;2024-01-11T14:21:25;0.90;99.90
8778;DHT22;4425;50.872;4.712;2024-01-11T14:23:52;0.90;99.90
8778;DHT22;4425;50.872;4.712;2024-01-11T14:26:19;0.90;99.90
8778;DHT22;4425;50.872;4.712;2024-01-11T14:28:46;0.90;99.90
8778;DHT22;4425;50.872;4.712;2024-01-11T14:31:13;0.90;99.90
8778;DHT22;4425;50.872;4.712;2024-01-11T14:33:40;1.00;99.90
8778;DHT22;4425;50.872;4.712;2024-01-11T14:36:08;0.90;99.90
8778;DHT22;4425;50.872;4.712;2024-01-11T14:38:35;1.00;99.90
8778;DHT22;4425;50.872;4.712;2024-01-11T14:41:02;1.00;99.90
8778;DHT22;4425;50.872;4.712;2024-01-11T14:43:30;1.00;99.90
8778;DHT22;4425;50.872;4.712;2024-01-11T14:45:58;1.00;99.90
8778;DHT22;4425;50.872;4.712;2024-01-11T14:48:25;1.00;99.90
8778;DHT22;4425;50.872;4.712;2024-01-11T14:50:52;1.00;99.90
8778;DHT22;4425;50.872;4.712;2024-01-11T14:53:20;1.00;99.90
8778;DHT22;4425;50.872;4.712;2024-01-11T14:55:47;1.00;99.90
8778;DHT22;4425;50.872;4.712;2024-01-11T14:58:14;1.00;99.90
8778;DHT22;4425;50.872;4.712;2024-01-11T15:00:43;0.90;99.90
8778;DHT22;4425;50.872;4.712;2024-01-11T15:03:09;0.90;99.90
8778;DHT22;4425;50.872;4.712;2024-01-11T15:05:37;0.90;99.90
8778;DHT22;4425;50.872;4.712;2024-01-11T15:08:04;0.90;99.90
8778;DHT22;4425;50.872;4.712;2024-01-11T15:10:33;0.90;99.90
8778;DHT22;4425;50.872;4.712;2024-01-11T15:12:59;0.80;99.90
8778;DHT22;4425;50.872;4.712;2024-01-11T15:15:27;0.80;99.90
8778;DHT22;4425;50.872;4.712;2024-01-11T15:17:54;0.80;99.90
8778;DHT22;4425;50.872;4.712;2024-01-11T15:20:21;0.80;99.90
8778;DHT22;4425;50.872;4.712;2024-01-11T15:22:48;0.80;99.90
8778;DHT22;4425;50.872;4.712;2024-01-11T15:25:15;0.70;99.90
8778;DHT22;4425;50.872;4.712;2024-01-11T15:27:45;0.70;99.90
8778;DHT22;4425;50.872;4.712;2024-01-11T15:30:12;0.70;99.90
8778;DHT22;4425;50.872;4.712;2024-01-11T15:32:39;0.60;99.90
8778;DHT22;4425;50.872;4.712;2024-01-11T15:35:06;0.60;99.90
8778;DHT22;4425;50.872;4.712;2024-01-11T15:37:33;0.50;99.90
8778;DHT22;4425;50.872;4.712;2024-01-11T15:40:01;0.50;99.90
8778;DHT22;4425;50.872;4.712;2024-01-11T15:42:29;0.50;99.90
8778;DHT22;4425;50.872;4.712;2024-01-11T15:44:58;0.50;99.90
8778;DHT22;4425;50.872;4.712;2024-01-11T15:47:24;0.40;99.90
8778;DHT22;4425;50.872;4.712;2024-01-11T15:49:51;0.40;99.90
8778;DHT22;4425;50.872;4.712;2024-01-11T15:52:18;0.40;99.90
8778;DHT22;4425;50.872;4.712;2024-01-11T15:54:46;0.30;99.90
8778;DHT22;4425;50.872;4.712;2024-01-11T15:57:13;0.40;99.90
8778;DHT22;4425;50.872;4.712;2024-01-11T15:59:40;0.20;99.90
8778;DHT22;4425;50.872;4.712;2024-01-11T16:02:08;0.20;99.90
8778;DHT22;4425;50.872;4.712;2024-01-11T16:04:37;0.20;99.90
8778;DHT22;4425;50.872;4.712;2024-01-11T16:07:04;0.10;99.90
8778;DHT22;4425;50.872;4.712;2024-01-11T16:09:31;0.10;99.90
8778;DHT22;4425;50.872;4.712;2024-01-11T16:11:58;0.10;99.90
8778;DHT22;4425;50.872;4.712;2024-01-11T16:14:25;0.20;99.90
8778;DHT22;4425;50.872;4.712;2024-01-11T16:16:52;0.10;99.90
8778;DHT22;4425;50.872;4.712;2024-01-11T16:19:21;0.00;99.90
8778;DHT22;4425;50.872;4.712;2024-01-11T16:21:48;0.00;99.90
8778;DHT22;4425;50.872;4.712;2024-01-11T16:24:14;0.00;99.90
8778;DHT22;4425;50.872;4.712;2024-01-11T16:26:41;-0.10;99.90
8778;DHT22;4425;50.872;4.712;2024-01-11T16:29:08;-0.10;99.90
8778;DHT22;4425;50.872;4.712;2024-01-11T16:31:35;-0.20;99.90
8778;DHT22;4425;50.872;4.712;2024-01-11T16:34:02;-0.20;99.90
8778;DHT22;4425;50.872;4.712;2024-01-11T16:36:31;-0.10;99.90
8778;DHT22;4425;50.872;4.712;2024-01-11T16:39:03;-0.10;99.90
8778;DHT22;4425;50.872;4.712;2024-01-11T16:41:34;-0.10;99.90
8778;DHT22;4425;50.872;4.712;2024-01-11T16:44:01;0.00;99.90
8778;DHT22;4425;50.872;4.712;2024-01-11T16:46:29;0.00;99.90
8778;DHT22;4425;50.872;4.712;2024-01-11T16:48:56;0.00;99.90
8778;DHT22;4425;50.872;4.712;2024-01-11T16:51:24;0.10;99.90
8778;DHT22;4425;50.872;4.712;2024-01-11T16:53:53;0.10;99.90
8778;DHT22;4425;50.872;4.712;2024-01-11T16:56:20;0.10;99.90
8778;DHT22;4425;50.872;4.712;2024-01-11T16:58:47;0.20;99.90
8778;DHT22;4425;50.872;4.712;2024-01-11T17:01:14;0.20;99.90
8778;DHT22;4425;50.872;4.712;2024-01-11T17:03:40;0.40;99.90
8778;DHT22;4425;50.872;4.712;2024-01-11T17:06:07;0.30;99.90
8778;DHT22;4425;50.872;4.712;2024-01-11T17:08:35;0.40;99.90
8778;DHT22;4425;50.872;4.712;2024-01-11T17:11:03;0.40;99.90
8778;DHT22;4425;50.872;4.712;2024-01-11T17:13:30;0.40;99.90
8778;DHT22;4425;50.872;4.712;2024-01-11T17:15:57;0.50;99.90
8778;DHT22;4425;50.872;4.712;2024-01-11T17:18:24;0.60;99.90
8778;DHT22;4425;50.872;4.712;2024-01-11T17:20:51;0.60;99.90
8778;DHT22;4425;50.872;4.712;2024-01-11T17:23:18;0.60;99.90
8778;DHT22;4425;50.872;4.712;2024-01-11T17:25:45;0.60;99.90
8778;DHT22;4425;50.872;4.712;2024-01-11T17:28:13;0.60;99.90
8778;DHT22;4425;50.872;4.712;2024-01-11T17:30:40;0.70;99.90
8778;DHT22;4425;50.872;4.712;2024-01-11T17:33:08;0.70;99.90
8778;DHT22;4425;50.872;4.712;2024-01-11T17:35:35;0.70;99.90
8778;DHT22;4425;50.872;4.712;2024-01-11T17:38:02;0.70;99.90
8778;DHT22;4425;50.872;4.712;2024-01-11T17:40:29;0.80;99.90
8778;DHT22;4425;50.872;4.712;2024-01-11T17:42:56;0.70;99.90
8778;DHT22;4425;50.872;4.712;2024-01-11T17:45:25;0.80;99.90
8778;DHT22;4425;50.872;4.712;2024-01-11T17:47:52;0.70;99.90
8778;DHT22;4425;50.872;4.712;2024-01-11T17:50:19;0.70;99.90
8778;DHT22;4425;50.872;4.712;2024-01-11T17:52:46;0.80;99.90
8778;DHT22;4425;50.872;4.712;2024-01-11T17:55:13;0.80;99.90
8778;DHT22;4425;50.872;4.712;2024-01-11T17:57:43;0.80;99.90
8778;DHT22;4425;50.872;4.712;2024-01-11T18:00:11;0.80;99.90
8778;DHT22;4425;50.872;4.712;2024-01-11T18:02:39;0.80;99.90
8778;DHT22;4425;50.872;4.712;2024-01-11T18:05:07;0.70;99.90
8778;DHT22;4425;50.872;4.712;2024-01-11T18:07:34;0.80;99.90
8778;DHT22;4425;50.872;4.712;2024-01-11T18:10:01;0.80;99.90
8778;DHT22;4425;50.872;4.712;2024-01-11T18:12:28;0.80;99.90
8778;DHT22;4425;50.872;4.712;2024-01-11T18:14:55;0.80;99.90
8778;DHT22;4425;50.872;4.712;2024-01-11T18:17:22;0.80;99.90
8778;DHT22;4425;50.872;4.712;2024-01-11T18:19:51;0.80;99.90
8778;DHT22;4425;50.872;4.712;2024-01-11T18:22:18;0.80;99.90
8778;DHT22;4425;50.872;4.712;2024-01-11T18:24:45;0.80;99.90
8778;DHT22;4425;50.872;4.712;2024-01-11T18:27:12;0.80;99.90
8778;DHT22;4425;50.872;4.712;2024-01-11T18:29:39;0.80;99.90
8778;DHT22;4425;50.872;4.712;2024-01-11T18:32:09;0.80;99.90
8778;DHT22;4425;50.872;4.712;2024-01-11T18:34:36;0.80;99.90
8778;DHT22;4425;50.872;4.712;2024-01-11T18:37:04;0.80;99.90
8778;DHT22;4425;50.872;4.712;2024-01-11T18:39:31;0.80;99.90
8778;DHT22;4425;50.872;4.712;2024-01-11T18:41:58;0.90;99.90
8778;DHT22;4425;50.872;4.712;2024-01-11T18:44:26;0.90;99.90
8778;DHT22;4425;50.872;4.712;2024-01-11T18:46:53;0.80;99.90
8778;DHT22;4425;50.872;4.712;2024-01-11T18:49:20;0.80;99.90
8778;DHT22;4425;50.872;4.712;2024-01-11T18:51:47;0.80;99.90
8778;DHT22;4425;50.872;4.712;2024-01-11T18:54:15;0.80;99.90
8778;DHT22;4425;50.872;4.712;2024-01-11T18:56:43;0.80;99.90
8778;DHT22;4425;50.872;4.712;2024-01-11T18:59:10;0.80;99.90
8778;DHT22;4425;50.872;4.712;2024-01-11T19:01:37;1.00;99.90
8778;DHT22;4425;50.872;4.712;2024-01-11T19:04:05;0.90;99.90
8778;DHT22;4425;50.872;4.712;2024-01-11T19:06:32;0.90;99.90
8778;DHT22;4425;50.872;4.712;2024-01-11T19:08:59;0.90;99.90
8778;DHT22;4425;50.872;4.712;2024-01-11T19:11:28;0.90;99.90
8778;DHT22;4425;50.872;4.712;2024-01-11T19:13:56;1.00;99.90
8778;DHT22;4425;50.872;4.712;2024-01-11T19:16:23;1.10;99.90
8778;DHT22;4425;50.872;4.712;2024-01-11T19:18:50;1.10;99.90
8778;DHT22;4425;50.872;4.712;2024-01-11T19:21:23;1.10;99.90
8778;DHT22;4425;50.872;4.712;2024-01-11T19:23:50;1.10;99.90
8778;DHT22;4425;50.872;4.712;2024-01-11T19:26:17;1.10;99.90
8778;DHT22;4425;50.872;4.712;2024-01-11T19:28:45;1.00;99.90
8778;DHT22;4425;50.872;4.712;2024-01-11T19:31:12;1.00;99.90
8778;DHT22;4425;50.872;4.712;2024-01-11T19:33:39;1.00;99.90
8778;DHT22;4425;50.872;4.712;2024-01-11T19:36:06;1.00;99.90
8778;DHT22;4425;50.872;4.712;2024-01-11T19:38:33;1.00;99.90
8778;DHT22;4425;50.872;4.712;2024-01-11T19:41:04;1.00;99.90
8778;DHT22;4425;50.872;4.712;2024-01-11T19:43:31;0.90;99.90
8778;DHT22;4425;50.872;4.712;2024-01-11T19:46:02;0.90;99.90
8778;DHT22;4425;50.872;4.712;2024-01-11T19:48:29;0.90;99.90
8778;DHT22;4425;50.872;4.712;2024-01-11T19:50:56;0.80;99.90
8778;DHT22;4425;50.872;4.712;2024-01-11T19:53:24;0.80;99.90
8778;DHT22;4425;50.872;4.712;2024-01-11T19:55:51;0.80;99.90
8778;DHT22;4425;50.872;4.712;2024-01-11T19:58:18;0.80;99.90
8778;DHT22;4425;50.872;4.712;2024-01-11T20:00:45;0.80;99.90
8778;DHT22;4425;50.872;4.712;2024-01-11T20:03:13;0.80;99.90
8778;DHT22;4425;50.872;4.712;2024-01-11T20:05:40;0.80;99.90
8778;DHT22;4425;50.872;4.712;2024-01-11T20:08:07;0.80;99.90
8778;DHT22;4425;50.872;4.712;2024-01-11T20:10:35;0.80;99.90
8778;DHT22;4425;50.872;4.712;2024-01-11T20:13:02;0.80;99.90
8778;DHT22;4425;50.872;4.712;2024-01-11T20:15:29;0.70;99.90
8778;DHT22;4425;50.872;4.712;2024-01-11T20:17:56;0.90;99.90
8778;DHT22;4425;50.872;4.712;2024-01-11T20:20:24;0.80;99.90
8778;DHT22;4425;50.872;4.712;2024-01-11T20:22:51;0.80;99.90
8778;DHT22;4425;50.872;4.712;2024-01-11T20:25:18;0.80;99.90
8778;DHT22;4425;50.872;4.712;2024-01-11T20:27:45;0.80;99.90
8778;DHT22;4425;50.872;4.712;2024-01-11T20:30:12;0.80;99.90
8778;DHT22;4425;50.872;4.712;2024-01-11T20:32:39;0.80;99.90
8778;DHT22;4425;50.872;4.712;2024-01-11T20:35:08;0.80;99.90
8778;DHT22;4425;50.872;4.712;2024-01-11T20:37:36;0.80;99.90
8778;DHT22;4425;50.872;4.712;2024-01-11T20:40:07;0.80;99.90
8778;DHT22;4425;50.872;4.712;2024-01-11T20:42:36;0.80;99.90
8778;DHT22;4425;50.872;4.712;2024-01-11T20:45:04;0.80;99.90
8778;DHT22;4425;50.872;4.712;2024-01-11T20:47:31;0.80;99.90
8778;DHT22;4425;50.872;4.712;2024-01-11T20:49:58;0.80;99.90
8778;DHT22;4425;50.872;4.712;2024-01-11T20:52:25;0.80;99.90
8778;DHT22;4425;50.872;4.712;2024-01-11T20:54:54;0.80;99.90
8778;DHT22;4425;50.872;4.712;2024-01-11T20:57:21;0.70;99.90
8778;DHT22;4425;50.872;4.712;2024-01-11T20:59:48;0.80;99.90
8778;DHT22;4425;50.872;4.712;2024-01-11T21:02:15;0.90;99.90
8778;DHT22;4425;50.872;4.712;2024-01-11T21:04:42;0.90;99.90
8778;DHT22;4425;50.872;4.712;2024-01-11T21:07:09;1.00;99.90
8778;DHT22;4425;50.872;4.712;2024-01-11T21:09:35;1.10;99.90
8778;DHT22;4425;50.872;4.712;2024-01-11T21:12:04;1.10;99.90
8778;DHT22;4425;50.872;4.712;2024-01-11T21:14:31;1.30;99.90
8778;DHT22;4425;50.872;4.712;2024-01-11T21:16:58;1.30;99.90
8778;DHT22;4425;50.872;4.712;2024-01-11T21:19:25;1.30;99.90
8778;DHT22;4425;50.872;4.712;2024-01-11T21:21:52;1.40;99.90
8778;DHT22;4425;50.872;4.712;2024-01-11T21:24:19;1.30;99.90
8778;DHT22;4425;50.872;4.712;2024-01-11T21:26:47;1.30;99.90
8778;DHT22;4425;50.872;4.712;2024-01-11T21:29:15;1.40;99.90
8778;DHT22;4425;50.872;4.712;2024-01-11T21:31:42;1.40;99.90
8778;DHT22;4425;50.872;4.712;2024-01-11T21:34:09;1.30;99.90
8778;DHT22;4425;50.872;4.712;2024-01-11T21:36:36;1.30;99.90
8778;DHT22;4425;50.872;4.712;2024-01-11T21:39:03;1.30;99.90
8778;DHT22;4425;50.872;4.712;2024-01-11T21:41:30;1.30;99.90
8778;DHT22;4425;50.872;4.712;2024-01-11T21:43:58;1.30;99.90
8778;DHT22;4425;50.872;4.712;2024-01-11T21:46:27;1.20;99.90
8778;DHT22;4425;50.872;4.712;2024-01-11T21:48:54;1.20;99.90
8778;DHT22;4425;50.872;4.712;2024-01-11T21:51:22;1.30;99.90
8778;DHT22;4425;50.872;4.712;2024-01-11T21:53:49;1.30;99.90
8778;DHT22;4425;50.872;4.712;2024-01-11T21:56:22;1.40;99.90
8778;DHT22;4425;50.872;4.712;2024-01-11T21:58:52;1.40;99.90
8778;DHT22;4425;50.872;4.712;2024-01-11T22:01:20;1.30;99.90
8778;DHT22;4425;50.872;4.712;2024-01-11T22:03:49;1.30;99.90
8778;DHT22;4425;50.872;4.712;2024-01-11T22:06:31;1.20;99.90
8778;DHT22;4425;50.872;4.712;2024-01-11T22:09:00;1.10;99.90
8778;DHT22;4425;50.872;4.712;2024-01-11T22:11:28;1.10;99.90
8778;DHT22;4425;50.872;4.712;2024-01-11T22:13:56;1.10;99.90
8778;DHT22;4425;50.872;4.712;2024-01-11T22:27:25;1.00;99.90
8778;DHT22;4425;50.872;4.712;2024-01-11T22:29:53;1.00;99.90
8778;DHT22;4425;50.872;4.712;2024-01-11T22:32:28;1.10;99.90
8778;DHT22;4425;50.872;4.712;2024-01-11T22:34:55;1.20;99.90
8778;DHT22;4425;50.872;4.712;2024-01-11T22:37:31;1.30;99.90
8778;DHT22;4425;50.872;4.712;2024-01-11T22:39:59;1.40;99.90
8778;DHT22;4425;50.872;4.712;2024-01-11T22:42:28;1.40;99.90
8778;DHT22;4425;50.872;4.712;2024-01-11T22:44:56;1.40;99.90
8778;DHT22;4425;50.872;4.712;2024-01-11T22:47:24;1.40;99.90
8778;DHT22;4425;50.872;4.712;2024-01-11T22:49:52;1.40;99.90
8778;DHT22;4425;50.872;4.712;2024-01-11T22:52:20;1.40;99.90
8778;DHT22;4425;50.872;4.712;2024-01-11T22:54:47;1.30;99.90
8778;DHT22;4425;50.872;4.712;2024-01-11T22:57:15;1.30;99.90
8778;DHT22;4425;50.872;4.712;2024-01-11T22:59:44;1.30;99.90
8778;DHT22;4425;50.872;4.712;2024-01-11T23:02:11;1.40;99.90
8778;DHT22;4425;50.872;4.712;2024-01-11T23:04:38;1.40;99.90
8778;DHT22;4425;50.872;4.712;2024-01-11T23:07:15;1.40;99.90
8778;DHT22;4425;50.872;4.712;2024-01-11T23:09:43;1.40;99.90
8778;DHT22;4425;50.872;4.712;2024-01-11T23:12:14;1.50;99.90
8778;DHT22;4425;50.872;4.712;2024-01-11T23:14:46;1.50;99.90
8778;DHT22;4425;50.872;4.712;2024-01-11T23:17:13;1.50;99.90
8778;DHT22;4425;50.872;4.712;2024-01-11T23:19:41;1.50;99.90
8778;DHT22;4425;50.872;4.712;2024-01-11T23:22:08;1.50;99.90
8778;DHT22;4425;50.872;4.712;2024-01-11T23:24:36;1.50;99.90
8778;DHT22;4425;50.872;4.712;2024-01-11T23:27:03;1.40;99.90
8778;DHT22;4425;50.872;4.712;2024-01-11T23:29:31;1.40;99.90
8778;DHT22;4425;50.872;4.712;2024-01-11T23:32:00;1.40;99.90
8778;DHT22;4425;50.872;4.712;2024-01-11T23:34:28;1.40;99.90
8778;DHT22;4425;50.872;4.712;2024-01-11T23:36:55;1.30;99.90
8778;DHT22;4425;50.872;4.712;2024-01-11T23:39:22;1.30;99.90
8778;DHT22;4425;50.872;4.712;2024-01-11T23:41:50;1.30;99.90
8778;DHT22;4425;50.872;4.712;2024-01-11T23:44:21;1.40;99.90
8778;DHT22;4425;50.872;4.712;2024-01-11T23:46:56;1.40;99.90
8778;DHT22;4425;50.872;4.712;2024-01-11T23:49:25;1.30;99.90
8778;DHT22;4425;50.872;4.712;2024-01-11T23:51:53;1.20;99.90
8778;DHT22;4425;50.872;4.712;2024-01-11T23:54:20;1.20;99.90
8778;DHT22;4425;50.872;4.712;2024-01-11T23:56:48;1.10;99.90
8778;DHT22;4425;50.872;4.712;2024-01-11T23:59:21;1.10;99.90
